Time;durP1;ratioP1;P1;durP2;ratioP2;P2;SDS_P1;SDS_P2;PMS_P1;PMS_P2;Temp;Humidity;BMP_temperature;BMP_pressure;BME280_temperature;BME280_humidity;BME280_pressure;Samples;Min_cycle;Max_cycle;Signal;HPM_P1;HPM_P2
2023/03/11 00:02:26;;;;;;;22.80;14.70;;;;;;;5.97;62.15;99010.98;104951;1264;64770;-56
2023/03/11 00:04:53;;;;;;;26.50;16.90;;;;;;;5.96;62.13;99006.70;104949;1262;59855;-55
2023/03/11 00:07:21;;;;;;;13.30;5.40;;;;;;;5.95;62.12;99006.23;105104;1262;59657;-55
2023/03/11 00:09:48;;;;;;;22.80;14.30;;;;;;;5.93;62.13;99000.64;105128;1265;65077;-55
2023/03/11 00:12:15;;;;;;;23.80;15.80;;;;;;;5.89;62.09;98998.23;105044;1264;62521;-56
2023/03/11 00:14:43;;;;;;;16.00;5.70;;;;;;;5.85;62.16;98999.40;105067;1263;73660;-55
2023/03/11 00:17:13;;;;;;;21.60;14.00;;;;;;;5.87;62.16;98996.98;105101;1262;59733;-55
2023/03/11 00:19:41;;;;;;;20.80;13.00;;;;;;;5.93;62.04;98994.05;105129;1262;59772;-55
2023/03/11 00:22:08;;;;;;;12.90;5.90;;;;;;;5.97;61.99;98989.23;105120;1261;65192;-55
2023/03/11 00:24:35;;;;;;;19.30;13.90;;;;;;;5.98;62.15;98986.83;105116;1262;62606;-54
2023/03/11 00:27:02;;;;;;;29.40;14.30;;;;;;;6.00;62.21;98987.41;104918;1264;65088;-55
2023/03/11 00:29:29;;;;;;;21.00;14.30;;;;;;;6.00;62.09;98983.19;104974;1262;59888;-55
2023/03/11 00:31:56;;;;;;;12.60;4.80;;;;;;;5.98;62.10;98982.52;104961;1267;60531;-57
2023/03/11 00:34:24;;;;;;;13.80;6.60;;;;;;;5.94;62.09;98976.15;105024;1263;65050;-54
2023/03/11 00:36:51;;;;;;;14.00;5.90;;;;;;;5.93;62.24;98967.77;104892;1264;62394;-54
2023/03/11 00:39:18;;;;;;;19.00;13.00;;;;;;;5.91;62.23;98969.30;105052;1263;65009;-55
2023/03/11 00:41:45;;;;;;;20.10;13.90;;;;;;;5.87;62.13;98968.45;104923;1263;59585;-54
2023/03/11 00:44:13;;;;;;;12.70;5.50;;;;;;;5.82;62.10;98964.30;105163;1263;59630;-54
2023/03/11 00:46:40;;;;;;;20.30;13.60;;;;;;;5.77;62.21;98959.67;105071;1265;65097;-55
2023/03/11 00:49:07;;;;;;;12.00;4.60;;;;;;;5.73;62.31;98952.13;105020;1262;62552;-55
2023/03/11 00:51:34;;;;;;;18.90;12.90;;;;;;;5.75;62.24;98950.79;104989;1263;64947;-54
2023/03/11 00:54:03;;;;;;;23.90;12.60;;;;;;;5.79;62.23;98947.66;105025;1263;60031;-54
2023/03/11 00:56:32;;;;;;;11.90;4.80;;;;;;;5.83;62.25;98941.41;104922;1262;59672;-55
2023/03/11 00:59:03;;;;;;;12.10;5.40;;;;;;;5.85;62.32;98932.73;104999;1265;65381;-55
2023/03/11 01:01:31;;;;;;;11.50;5.30;;;;;;;5.84;62.37;98929.33;104947;1264;61895;-55
2023/03/11 01:03:58;;;;;;;17.90;12.80;;;;;;;5.83;62.48;98925.42;105051;1262;65180;-55
2023/03/11 01:06:27;;;;;;;17.00;12.20;;;;;;;5.82;62.54;98916.98;105041;1263;59657;-55
2023/03/11 01:09:05;;;;;;;21.40;12.00;;;;;;;5.83;62.60;98917.97;105224;1263;59686;-55
2023/03/11 01:11:32;;;;;;;17.70;11.80;;;;;;;5.81;62.46;98918.13;104939;1267;65384;-56
2023/03/11 01:13:59;;;;;;;15.40;4.90;;;;;;;5.76;62.55;98917.42;105056;1263;62671;-54
2023/03/11 01:16:26;;;;;;;16.90;11.60;;;;;;;5.71;62.60;98916.45;104947;1262;64832;-55
2023/03/11 01:18:56;;;;;;;10.00;5.00;;;;;;;5.68;62.67;98913.83;104939;1262;59831;-55
2023/03/11 01:21:23;;;;;;;15.90;10.50;;;;;;;5.69;62.53;98911.97;105142;1263;60025;-55
2023/03/11 01:23:50;;;;;;;8.60;3.70;;;;;;;5.73;62.41;98908.66;104988;1264;65573;-55
2023/03/11 01:26:17;;;;;;;17.60;11.30;;;;;;;5.77;62.52;98902.73;105002;1264;62594;-55
2023/03/11 01:28:44;;;;;;;16.70;10.20;;;;;;;5.84;62.49;98898.39;105042;1263;64721;-55
2023/03/11 01:31:11;;;;;;;17.20;11.90;;;;;;;5.87;62.38;98897.61;104874;1265;60979;-56
2023/03/11 01:33:39;;;;;;;16.70;10.70;;;;;;;5.86;62.47;98898.20;105051;1262;59696;-55
2023/03/11 01:36:06;;;;;;;11.90;5.10;;;;;;;5.84;62.46;98899.19;105013;1262;65219;-55
2023/03/11 01:38:34;;;;;;;15.40;11.20;;;;;;;5.82;62.60;98894.84;105110;1265;61858;-55
2023/03/11 01:41:00;;;;;;;15.70;10.90;;;;;;;5.81;62.60;98894.48;104943;1263;64993;-55
2023/03/11 01:43:44;;;;;;;15.80;11.60;;;;;;;5.77;62.53;98886.59;105088;1262;59747;-55
2023/03/11 01:46:21;;;;;;;;;;;;;;;5.72;62.58;98884.07;105094;1263;59689;-54
2023/03/11 01:48:54;;;;;;;9.40;3.80;;;;;;;5.67;62.67;98882.02;105074;1265;65399;-55
2023/03/11 01:51:27;;;;;;;14.20;10.50;;;;;;;5.63;62.83;98880.32;104928;1263;62945;-55
2023/03/11 01:54:03;;;;;;;8.70;3.70;;;;;;;5.59;62.77;98879.05;105048;1264;65012;-54
2023/03/11 01:56:30;;;;;;;10.00;3.30;;;;;;;5.62;62.82;98875.52;104876;1263;60547;-56
2023/03/11 01:58:58;;;;;;;8.20;3.60;;;;;;;5.67;62.77;98874.02;105102;1263;60557;-56
2023/03/11 02:01:25;;;;;;;16.80;10.50;;;;;;;5.70;62.80;98871.83;104964;1262;65977;-55
2023/03/11 02:03:53;;;;;;;15.70;10.30;;;;;;;5.74;62.88;98868.55;104962;1263;62501;-56
2023/03/11 02:06:21;;;;;;;15.40;10.40;;;;;;;5.77;62.84;98866.75;105043;1264;64741;-54
2023/03/11 02:08:48;;;;;;;16.70;9.90;;;;;;;5.77;62.97;98862.16;105042;1262;60496;-55
2023/03/11 02:11:21;;;;;;;15.30;10.60;;;;;;;5.78;62.98;98862.61;104948;1262;60760;-55
2023/03/11 02:13:48;;;;;;;14.10;10.00;;;;;;;5.78;63.03;98859.15;104889;1263;66036;-54
2023/03/11 02:16:17;;;;;;;8.10;3.80;;;;;;;5.77;63.00;98859.39;105099;1262;62890;-55
2023/03/11 02:18:44;;;;;;;11.50;5.10;;;;;;;5.74;62.91;98852.55;105123;1263;64815;-55
2023/03/11 02:21:31;;;;;;;14.40;9.80;;;;;;;5.68;63.09;98854.09;105071;1263;60417;-55
2023/03/11 02:24:15;;;;;;;11.20;4.50;;;;;;;5.62;63.27;98854.96;104993;1265;60458;-58
2023/03/11 02:26:55;;;;;;;9.50;4.30;;;;;;;5.58;63.44;98849.54;104993;1265;66739;-55
2023/03/11 02:29:22;;;;;;;15.10;10.30;;;;;;;5.56;63.49;98849.36;105123;1263;62660;-55
2023/03/11 02:31:49;;;;;;;9.40;4.20;;;;;;;5.54;63.49;98847.56;104934;1263;65153;-55
2023/03/11 02:34:23;;;;;;;8.30;3.40;;;;;;;5.58;63.47;98847.79;105127;1262;60471;-56
2023/03/11 02:36:50;;;;;;;13.90;9.10;;;;;;;5.65;63.31;98847.58;105047;1265;60468;-56
2023/03/11 02:39:48;;;;;;;15.80;9.70;;;;;;;5.71;63.39;98843.54;105071;1265;66187;-54
2023/03/11 02:42:29;;;;;;;15.50;9.70;;;;;;;5.76;63.29;98839.47;105048;1263;62701;-55
2023/03/11 02:45:06;;;;;;;9.10;3.80;;;;;;;5.79;63.24;98839.64;104975;1265;65013;-55
2023/03/11 02:47:34;;;;;;;13.70;9.80;;;;;;;5.79;63.35;98838.45;105006;1262;60503;-56
2023/03/11 02:50:01;;;;;;;18.40;11.10;;;;;;;5.77;63.44;98837.86;105016;1267;60403;-55
2023/03/11 02:52:30;;;;;;;11.20;4.00;;;;;;;5.78;63.40;98840.91;105062;1267;66179;-56
2023/03/11 02:54:58;;;;;;;10.00;4.50;;;;;;;5.76;63.35;98837.24;104946;1263;62725;-55
2023/03/11 02:57:25;;;;;;;18.00;12.30;;;;;;;5.73;63.31;98833.69;105486;1262;65206;-55
2023/03/11 02:59:52;;;;;;;17.50;10.80;;;;;;;5.69;63.27;98827.89;104901;1262;60486;-55
2023/03/11 03:02:20;;;;;;;13.90;4.30;;;;;;;5.69;63.28;98825.09;105016;1262;60483;-56
2023/03/11 03:04:47;;;;;;;16.50;9.60;;;;;;;5.73;63.10;98821.49;105141;1265;65882;-54
2023/03/11 03:07:14;;;;;;;14.90;10.00;;;;;;;5.76;63.11;98817.92;105155;1262;62640;-54
2023/03/11 03:09:41;;;;;;;10.60;3.70;;;;;;;5.77;63.25;98812.41;104988;1265;64735;-54
2023/03/11 03:12:09;;;;;;;16.30;10.90;;;;;;;5.77;63.27;98810.21;105082;1263;61721;-54
2023/03/11 03:14:38;;;;;;;17.40;11.20;;;;;;;5.76;63.40;98806.80;105122;1264;60490;-55
2023/03/11 03:17:05;;;;;;;16.70;10.90;;;;;;;5.75;63.42;98797.81;105219;1261;66104;-55
2023/03/11 03:19:32;;;;;;;15.50;5.20;;;;;;;5.71;63.38;98794.30;104942;1262;62986;-55
2023/03/11 03:22:02;;;;;;;19.50;12.10;;;;;;;5.67;63.46;98796.08;104914;1262;64919;-57
2023/03/11 03:24:29;;;;;;;11.30;5.10;;;;;;;5.63;63.57;98796.45;105005;1262;60586;-56
2023/03/11 03:26:57;;;;;;;21.30;12.20;;;;;;;5.58;63.73;98791.45;104988;1263;60477;-56
2023/03/11 03:29:24;;;;;;;9.40;3.50;;;;;;;5.54;63.74;98786.23;105077;1264;66100;-57
2023/03/11 03:31:51;;;;;;;9.30;3.50;;;;;;;5.56;63.80;98778.39;105013;1262;62600;-56
2023/03/11 03:34:18;;;;;;;18.10;11.00;;;;;;;5.62;63.67;98775.95;105063;1262;65279;-57
2023/03/11 03:36:45;;;;;;;18.40;11.20;;;;;;;5.67;63.72;98770.97;104979;1265;60569;-56
2023/03/11 03:39:13;;;;;;;13.40;4.90;;;;;;;5.72;63.72;98772.86;105079;1262;60481;-55
2023/03/11 03:41:41;;;;;;;18.70;10.90;;;;;;;5.75;63.79;98769.79;105064;1262;65249;-55
2023/03/11 03:44:08;;;;;;;14.00;10.60;;;;;;;5.78;63.69;98764.17;105068;1263;62475;-55
2023/03/11 03:46:37;;;;;;;15.60;11.40;;;;;;;5.78;63.61;98759.11;104971;1265;64947;-54
2023/03/11 03:49:04;;;;;;;14.10;5.60;;;;;;;5.76;63.64;98754.77;105001;1262;60501;-55
2023/03/11 03:51:35;;;;;;;11.20;5.50;;;;;;;5.74;63.66;98742.90;104950;1263;60428;-55
2023/03/11 03:54:23;;;;;;;11.20;5.20;;;;;;;5.71;63.67;98738.51;105077;1265;66175;-56
2023/03/11 03:56:52;;;;;;;10.10;5.10;;;;;;;5.66;63.65;98737.56;105003;1262;62277;-55
2023/03/11 03:59:19;;;;;;;11.80;5.00;;;;;;;5.60;63.76;98732.30;105121;1262;65403;-55
2023/03/11 04:01:52;;;;;;;16.60;11.20;;;;;;;5.55;63.83;98728.93;105072;1261;60537;-55
2023/03/11 04:04:19;;;;;;;18.10;11.00;;;;;;;5.50;63.85;98728.82;104976;1262;60452;-57
2023/03/11 04:06:47;;;;;;;9.70;4.10;;;;;;;5.54;64.07;98724.27;105058;1265;66231;-56
2023/03/11 04:09:13;;;;;;;8.00;3.10;;;;;;;5.63;63.93;98718.98;105137;1263;62393;-56
2023/03/11 04:11:42;;;;;;;15.80;10.60;;;;;;;5.69;63.79;98710.61;104972;1262;64723;-55
2023/03/11 04:14:12;;;;;;;14.30;11.00;;;;;;;5.73;63.78;98708.22;105101;1263;60461;-55
2023/03/11 04:16:45;;;;;;;16.20;11.10;;;;;;;5.75;63.68;98702.45;104978;1262;60489;-55
2023/03/11 04:19:13;;;;;;;15.50;10.70;;;;;;;5.77;63.78;98701.48;105052;1265;74740;-55
2023/03/11 04:21:40;;;;;;;10.40;4.90;;;;;;;5.77;63.61;98697.08;105081;1263;62392;-54
2023/03/11 04:24:08;;;;;;;10.40;5.20;;;;;;;5.76;63.54;98695.59;105027;1262;65007;-55
2023/03/11 04:26:36;;;;;;;10.10;4.60;;;;;;;5.73;63.49;98694.16;105079;1262;60545;-56
2023/03/11 04:29:04;;;;;;;11.00;6.10;;;;;;;5.69;63.53;98689.64;105076;1262;60541;-56
2023/03/11 04:31:33;;;;;;;17.10;12.10;;;;;;;5.66;63.54;98687.79;105020;1267;66403;-56
2023/03/11 04:34:07;;;;;;;16.60;11.10;;;;;;;5.61;63.60;98686.10;104968;1262;62804;-55
2023/03/11 04:36:36;;;;;;;9.90;5.30;;;;;;;5.57;63.54;98687.16;104969;1262;64842;-55
2023/03/11 04:39:04;;;;;;;17.50;11.30;;;;;;;5.59;63.57;98688.76;105008;1261;60434;-56
2023/03/11 04:41:37;;;;;;;18.50;11.60;;;;;;;5.65;63.59;98685.77;105073;1266;60757;-56
2023/03/11 04:44:05;;;;;;;8.70;3.70;;;;;;;5.72;63.51;98683.05;105158;1263;66167;-54
2023/03/11 04:46:31;;;;;;;10.30;5.20;;;;;;;5.77;63.52;98676.75;105011;1265;62830;-56
2023/03/11 04:48:59;;;;;;;17.00;11.30;;;;;;;5.80;63.62;98674.09;105058;1263;64155;-55
2023/03/11 04:51:26;;;;;;;16.90;11.80;;;;;;;5.85;63.50;98672.95;105028;1262;60513;-56
2023/03/11 04:53:54;;;;;;;17.80;11.90;;;;;;;5.87;63.43;98664.73;105062;1263;60455;-56
2023/03/11 04:56:21;;;;;;;12.60;5.30;;;;;;;5.87;63.46;98659.35;105087;1266;66190;-57
2023/03/11 04:58:50;;;;;;;17.20;11.90;;;;;;;5.89;63.48;98651.71;105172;1265;62870;-56
2023/03/11 05:01:17;;;;;;;17.70;12.40;;;;;;;5.89;63.52;98644.37;104915;1265;64745;-56
2023/03/11 05:03:45;;;;;;;18.70;13.60;;;;;;;5.91;63.55;98642.59;105023;1263;61728;-56
2023/03/11 05:06:13;;;;;;;14.40;5.70;;;;;;;5.94;63.48;98640.95;105023;1261;60505;-56
2023/03/11 05:08:42;;;;;;;17.60;11.80;;;;;;;6.03;63.35;98636.17;105122;1263;66183;-54
2023/03/11 05:11:10;;;;;;;18.60;12.30;;;;;;;6.14;63.24;98634.20;105002;1262;62424;-54
2023/03/11 05:13:41;;;;;;;16.40;12.00;;;;;;;6.25;63.03;98627.82;105151;1265;65348;-56
2023/03/11 05:16:08;;;;;;;15.10;11.90;;;;;;;6.31;63.05;98629.48;104947;1262;60551;-56
2023/03/11 05:18:36;;;;;;;18.70;13.20;;;;;;;6.37;63.00;98626.02;105151;1262;60451;-55
2023/03/11 05:21:04;;;;;;;19.50;12.70;;;;;;;6.42;62.87;98618.27;104968;1263;66221;-56
2023/03/11 05:23:32;;;;;;;20.10;12.50;;;;;;;6.46;62.76;98610.04;105274;1263;62569;-54
2023/03/11 05:25:59;;;;;;;18.90;7.50;;;;;;;6.49;62.58;98610.86;105176;1263;64923;-55
2023/03/11 05:28:28;;;;;;;18.70;13.00;;;;;;;6.50;62.44;98608.09;104944;1262;60381;-56
2023/03/11 05:30:55;;;;;;;20.10;13.80;;;;;;;6.51;62.47;98602.29;104973;1262;61384;-53
2023/03/11 05:33:24;;;;;;;17.20;13.30;;;;;;;6.52;62.49;98600.27;105074;1267;66164;-56
2023/03/11 05:35:52;;;;;;;21.70;14.00;;;;;;;6.54;62.43;98597.72;105232;1263;70312;-56
2023/03/11 05:38:19;;;;;;;16.10;10.90;;;;;;;6.60;62.32;98596.97;105050;1262;64740;-56
2023/03/11 05:40:47;;;;;;;19.60;12.00;;;;;;;6.71;62.36;98595.03;104979;1266;60552;-56
2023/03/11 05:43:14;;;;;;;11.30;4.60;;;;;;;6.83;62.22;98589.91;105469;1258;60658;-56
2023/03/11 05:45:41;;;;;;;18.00;12.20;;;;;;;6.93;62.05;98581.48;105320;1262;74751;-55
2023/03/11 05:48:08;;;;;;;17.30;12.30;;;;;;;7.01;61.93;98584.20;105347;1257;62647;-55
2023/03/11 05:50:36;;;;;;;17.60;12.70;;;;;;;7.11;61.62;98585.90;105383;1259;65190;-55
2023/03/11 05:53:04;;;;;;;16.60;12.10;;;;;;;7.21;61.32;98585.52;105305;1259;60593;-55
2023/03/11 05:55:31;;;;;;;19.50;12.80;;;;;;;7.28;61.00;98582.58;105111;1257;60561;-55
2023/03/11 05:57:59;;;;;;;19.40;12.70;;;;;;;7.31;60.64;98582.52;105308;1260;66069;-55
2023/03/11 06:00:28;;;;;;;11.00;5.30;;;;;;;7.29;60.48;98582.02;105186;1259;62625;-55
2023/03/11 06:03:16;;;;;;;18.90;12.80;;;;;;;7.26;60.27;98580.66;105208;1258;66416;-55
2023/03/11 06:05:47;;;;;;;13.30;5.30;;;;;;;7.25;60.16;98578.98;105387;1257;60552;-55
2023/03/11 06:08:15;;;;;;;18.40;12.80;;;;;;;7.24;59.99;98580.29;105327;1262;60399;-55
2023/03/11 06:10:42;;;;;;;20.00;13.70;;;;;;;7.23;59.85;98582.20;105317;1262;67947;-56
2023/03/11 06:13:09;;;;;;;19.40;12.40;;;;;;;7.21;59.77;98583.89;105341;1262;61970;-55
2023/03/11 06:15:46;;;;;;;16.00;12.30;;;;;;;7.26;59.61;98579.42;105160;1262;73471;-56
2023/03/11 06:18:13;;;;;;;17.30;11.90;;;;;;;7.32;59.54;98575.76;105552;1257;60584;-56
2023/03/11 06:20:43;;;;;;;19.10;13.70;;;;;;;7.37;59.43;98578.24;105387;1258;60483;-57
2023/03/11 06:23:10;;;;;;;16.00;12.60;;;;;;;7.37;59.34;98572.98;105223;1262;66209;-57
2023/03/11 06:25:38;;;;;;;18.50;13.10;;;;;;;7.36;59.36;98568.80;105390;1260;62832;-56
2023/03/11 06:28:06;;;;;;;17.10;12.90;;;;;;;7.34;59.43;98561.98;105338;1258;64814;-56
2023/03/11 06:30:33;;;;;;;18.50;13.60;;;;;;;7.34;59.45;98561.26;105427;1259;60598;-56
2023/03/11 06:33:07;;;;;;;18.40;13.50;;;;;;;7.32;59.49;98557.97;105338;1260;60441;-57
2023/03/11 06:35:35;;;;;;;19.60;13.60;;;;;;;7.30;59.83;98549.48;105640;1259;66180;-56
2023/03/11 06:38:02;;;;;;;18.50;13.50;;;;;;;7.28;59.85;98546.51;105342;1259;62654;-58
2023/03/11 06:40:33;;;;;;;19.10;13.40;;;;;;;7.26;60.04;98543.16;105122;1258;65014;-56
2023/03/11 06:43:00;;;;;;;19.10;13.30;;;;;;;7.27;60.05;98545.71;105203;1260;60462;-56
2023/03/11 06:45:30;;;;;;;18.90;13.60;;;;;;;7.27;60.14;98541.17;105210;1259;60508;-57
2023/03/11 06:47:57;;;;;;;19.30;13.10;;;;;;;7.29;60.22;98536.67;105198;1262;66371;-56
2023/03/11 06:50:29;;;;;;;19.40;13.70;;;;;;;7.38;60.21;98528.10;105371;1259;62737;-57
2023/03/11 06:52:57;;;;;;;10.50;5.60;;;;;;;7.54;60.11;98525.16;105448;1261;73641;-56
2023/03/11 06:55:23;;;;;;;16.90;12.70;;;;;;;7.71;59.92;98522.80;105401;1259;61160;-56
2023/03/11 06:57:51;;;;;;;20.40;14.20;;;;;;;7.85;59.91;98519.34;105291;1258;60461;-56
2023/03/11 07:00:18;;;;;;;18.10;13.80;;;;;;;7.97;59.61;98511.52;105296;1260;66377;-57
2023/03/11 07:02:50;;;;;;;18.50;13.80;;;;;;;8.07;59.33;98510.41;105284;1256;62308;-57
2023/03/11 07:05:18;;;;;;;19.80;14.10;;;;;;;8.11;59.10;98510.84;105413;1257;64864;-56
2023/03/11 07:07:46;;;;;;;22.00;14.60;;;;;;;8.11;59.24;98508.18;105379;1262;60423;-53
2023/03/11 07:10:19;;;;;;;20.10;14.90;;;;;;;8.10;59.65;98505.55;105248;1259;60426;-57
2023/03/11 07:12:47;;;;;;;18.50;13.40;;;;;;;8.09;59.97;98502.38;105115;1262;66203;-56
2023/03/11 07:15:14;;;;;;;19.90;14.40;;;;;;;8.08;60.20;98503.28;105272;1259;62995;-56
2023/03/11 07:17:44;;;;;;;19.00;14.90;;;;;;;8.09;60.48;98496.39;105146;1260;64204;-56
2023/03/11 07:20:12;;;;;;;21.90;14.50;;;;;;;8.18;60.65;98491.99;105298;1259;60562;-55
2023/03/11 07:22:38;;;;;;;18.50;13.20;;;;;;;8.27;60.49;98479.87;105386;1260;62760;-56
2023/03/11 07:25:06;;;;;;;20.30;14.10;;;;;;;8.35;60.37;98475.94;105342;1262;66387;-55
2023/03/11 07:27:33;;;;;;;19.20;14.40;;;;;;;8.40;60.42;98471.45;105332;1259;62439;-55
2023/03/11 07:30:01;;;;;;;18.90;13.00;;;;;;;8.44;60.42;98472.31;105253;1261;68086;-54
2023/03/11 07:32:30;;;;;;;19.00;13.90;;;;;;;8.47;60.33;98465.01;105441;1257;60616;-55
2023/03/11 07:34:57;;;;;;;20.40;14.40;;;;;;;8.46;60.34;98460.02;105544;1258;61163;-56
2023/03/11 07:37:27;;;;;;;17.60;13.80;;;;;;;8.44;60.38;98456.20;105384;1260;74500;-56
2023/03/11 07:39:54;;;;;;;20.90;14.60;;;;;;;8.42;60.39;98448.52;105403;1260;62413;-55
2023/03/11 07:42:22;;;;;;;22.20;15.50;;;;;;;8.37;60.46;98439.17;105545;1262;64916;-56
2023/03/11 07:44:50;;;;;;;20.40;14.40;;;;;;;8.33;60.69;98436.27;105244;1258;61293;-55
2023/03/11 07:47:17;;;;;;;18.80;13.90;;;;;;;8.31;60.81;98429.51;105327;1259;61220;-54
2023/03/11 07:49:46;;;;;;;19.20;13.50;;;;;;;8.38;60.99;98420.13;105509;1261;66231;-56
2023/03/11 07:52:14;;;;;;;18.40;12.80;;;;;;;8.48;61.10;98413.30;105445;1257;62772;-56
2023/03/11 07:54:40;;;;;;;21.80;13.00;;;;;;;8.59;61.19;98404.38;105326;1259;64785;-57
2023/03/11 07:57:11;;;;;;;16.70;12.40;;;;;;;8.65;61.44;98403.01;105316;1259;60545;-56
2023/03/11 07:59:38;;;;;;;17.00;12.30;;;;;;;8.68;61.85;98393.48;105326;1258;60563;-56
2023/03/11 08:02:08;;;;;;;17.90;13.10;;;;;;;8.71;61.99;98380.35;105330;1261;66063;-57
2023/03/11 08:04:35;;;;;;;19.50;14.10;;;;;;;8.79;62.14;98369.44;105428;1262;61730;-56
2023/03/11 08:07:02;;;;;;;20.70;13.90;;;;;;;8.84;62.03;98359.65;105355;1260;64773;-56
2023/03/11 08:09:29;;;;;;;17.70;13.80;;;;;;;8.85;62.04;98369.49;105328;1258;60569;-56
2023/03/11 08:11:58;;;;;;;15.60;12.20;;;;;;;8.84;62.27;98366.48;105290;1257;60584;-56
2023/03/11 08:14:26;;;;;;;17.00;11.90;;;;;;;8.87;62.20;98361.05;105372;1259;66068;-56
2023/03/11 08:16:56;;;;;;;17.40;10.90;;;;;;;8.92;61.96;98356.36;105393;1260;62614;-55
2023/03/11 08:19:22;;;;;;;15.80;11.60;;;;;;;8.98;61.93;98347.29;105352;1261;64547;-54
2023/03/11 08:21:49;;;;;;;16.00;12.20;;;;;;;9.03;61.93;98339.77;105340;1258;60564;-55
2023/03/11 08:24:17;;;;;;;18.90;12.60;;;;;;;9.06;61.83;98335.02;105387;1257;60565;-56
2023/03/11 08:26:44;;;;;;;16.10;11.70;;;;;;;9.10;61.91;98332.33;105425;1261;65986;-55
2023/03/11 08:29:15;;;;;;;21.90;15.50;;;;;;;9.13;62.08;98338.43;105356;1262;61633;-54
2023/03/11 08:31:42;;;;;;;18.90;14.20;;;;;;;9.12;62.14;98339.39;105296;1260;64841;-55
2023/03/11 08:34:10;;;;;;;21.40;14.70;;;;;;;9.07;62.44;98334.08;105275;1259;60427;-54
2023/03/11 08:36:37;;;;;;;17.90;13.00;;;;;;;9.01;62.90;98343.48;105051;1264;60594;-55
2023/03/11 08:39:04;;;;;;;17.50;13.30;;;;;;;9.00;63.18;98339.97;105292;1258;66288;-53
2023/03/11 08:41:31;;;;;;;14.80;11.40;;;;;;;9.00;63.44;98335.91;105481;1260;62602;-54
2023/03/11 08:43:58;;;;;;;16.70;12.60;;;;;;;9.03;63.54;98336.11;105280;1259;65323;-54
2023/03/11 08:46:28;;;;;;;17.60;12.50;;;;;;;9.03;63.59;98333.09;105332;1258;60571;-54
2023/03/11 08:48:55;;;;;;;19.40;14.60;;;;;;;9.02;63.81;98330.99;105401;1260;60540;-54
2023/03/11 08:51:22;;;;;;;22.10;16.20;;;;;;;9.02;64.10;98323.09;105493;1262;66219;-54
2023/03/11 08:53:50;;;;;;;19.10;15.50;;;;;;;9.02;63.91;98318.54;105376;1260;62512;-55
2023/03/11 08:56:17;;;;;;;19.50;15.30;;;;;;;8.97;63.84;98315.55;105428;1260;64989;-54
2023/03/11 08:58:44;;;;;;;23.10;15.30;;;;;;;8.90;63.97;98318.39;105366;1259;61055;-53
2023/03/11 09:01:11;;;;;;;18.90;14.30;;;;;;;8.85;63.97;98320.38;105390;1259;60469;-54
2023/03/11 09:03:39;;;;;;;20.70;15.50;;;;;;;8.85;63.99;98317.95;105246;1262;65907;-54
2023/03/11 09:06:07;;;;;;;20.80;14.60;;;;;;;8.89;63.92;98313.80;105394;1259;62710;-53
2023/03/11 09:08:35;;;;;;;19.50;14.80;;;;;;;8.91;63.79;98302.91;105416;1260;73688;-54
2023/03/11 09:11:02;;;;;;;20.90;15.30;;;;;;;8.88;63.82;98298.68;105391;1259;61605;-54
2023/03/11 09:13:31;;;;;;;22.50;16.70;;;;;;;8.84;63.86;98292.98;105377;1257;60368;-53
2023/03/11 09:15:58;;;;;;;23.70;17.50;;;;;;;8.78;63.86;98292.64;105355;1262;66104;-53
2023/03/11 09:18:27;;;;;;;22.80;17.40;;;;;;;8.72;63.89;98291.33;105645;1257;62795;-53
2023/03/11 09:20:59;;;;;;;24.60;17.10;;;;;;;8.65;63.97;98292.70;105351;1260;64995;-53
2023/03/11 09:23:28;;;;;;;24.80;17.50;;;;;;;8.56;64.08;98292.81;105307;1260;61676;-53
2023/03/11 09:25:55;;;;;;;24.80;17.30;;;;;;;8.53;64.21;98292.20;105334;1259;60558;-54
2023/03/11 09:28:22;;;;;;;23.00;16.80;;;;;;;8.55;64.15;98284.68;105339;1259;66316;-54
2023/03/11 09:30:49;;;;;;;23.10;16.90;;;;;;;8.55;64.05;98281.20;105286;1260;61777;-54
2023/03/11 09:33:22;;;;;;;22.80;17.00;;;;;;;8.51;64.19;98273.37;105432;1261;65024;-54
2023/03/11 09:35:51;;;;;;;25.90;18.20;;;;;;;8.47;64.32;98262.27;105400;1259;60482;-54
2023/03/11 09:38:18;;;;;;;24.90;18.40;;;;;;;8.42;64.40;98255.51;105283;1262;60489;-55
2023/03/11 09:41:12;;;;;;;27.30;19.70;;;;;;;8.35;64.51;98251.83;105331;1262;66164;-55
2023/03/11 09:44:08;;;;;;;27.20;19.40;;;;;;;8.29;64.86;98243.02;105300;1260;61979;-54
2023/03/11 09:46:45;;;;;;;24.80;18.50;;;;;;;8.25;65.01;98241.35;105355;1262;65878;-54
2023/03/11 09:49:36;;;;;;;25.20;17.50;;;;;;;8.25;64.85;98233.42;105142;1259;332770;-53
2023/03/11 09:53:18;;;;;;;17.20;8.60;;;;;;;8.06;65.71;98219.89;102452;1293;601114;-52
2023/03/11 09:55:52;;;;;;;29.30;21.20;;;;;;;8.21;65.59;98213.44;104881;1269;59258;-54
2023/03/11 09:58:34;;;;;;;28.50;21.50;;;;;;;8.20;65.63;98213.52;104929;1268;59315;-53
2023/03/11 10:01:10;;;;;;;28.00;21.60;;;;;;;8.17;65.97;98215.44;105427;1262;64776;-54
2023/03/11 10:03:38;;;;;;;27.20;20.40;;;;;;;8.13;66.12;98213.23;105445;1263;62496;-54
2023/03/11 10:06:13;;;;;;;26.90;21.10;;;;;;;8.08;66.25;98208.38;105124;1257;150482;-52
2023/03/11 10:08:45;;;;;;;16.30;7.00;;;;;;;8.10;66.53;98199.80;105455;1259;59602;-53
2023/03/11 10:11:43;;;;;;;28.40;20.30;;;;;;;8.17;66.67;98192.51;105496;1259;59349;-53
2023/03/11 10:14:30;;;;;;;25.60;20.20;;;;;;;8.27;66.83;98193.22;105480;1260;64720;-52
2023/03/11 10:17:25;;;;;;;27.40;19.60;;;;;;;8.32;66.95;98192.92;105527;1259;62654;-53
2023/03/11 10:20:11;;;;;;;29.10;21.60;;;;;;;8.30;67.13;98190.98;105366;1258;65059;-52
2023/03/11 10:22:46;;;;;;;26.80;21.20;;;;;;;8.30;67.29;98190.63;105516;1256;59551;-51
2023/03/11 10:25:24;;;;;;;31.60;22.10;;;;;;;8.31;67.32;98187.19;105550;1256;59758;-51
2023/03/11 10:27:56;;;;;;;28.30;21.00;;;;;;;8.29;67.32;98177.66;105488;1254;65040;-50
2023/03/11 10:30:27;;;;;;;25.00;19.50;;;;;;;8.30;67.16;98168.65;105601;1258;61676;-51
2023/03/11 10:33:11;;;;;;;23.00;18.20;;;;;;;8.36;67.26;98161.22;105521;1254;64931;-51
2023/03/11 10:35:44;;;;;;;24.80;19.00;;;;;;;8.42;67.28;98154.84;105370;1259;60082;-51
2023/03/11 10:38:32;;;;;;;29.70;21.50;;;;;;;8.43;67.43;98150.67;105422;1258;59486;-52
2023/03/11 10:41:03;;;;;;;28.10;21.00;;;;;;;8.44;67.61;98146.58;105767;1259;65458;-51
2023/03/11 10:43:44;;;;;;;26.50;20.00;;;;;;;8.46;67.68;98143.10;105460;1259;62144;-51
2023/03/11 10:46:22;;;;;;;30.90;22.20;;;;;;;8.47;67.91;98139.44;105557;1259;64710;-52
2023/03/11 10:48:50;;;;;;;23.60;19.80;;;;;;;8.46;67.83;98134.65;105402;1260;59740;-52
2023/03/11 10:51:27;;;;;;;28.50;19.70;;;;;;;8.50;67.86;98134.25;105452;1259;59620;-51
2023/03/11 10:53:57;;;;;;;25.60;18.80;;;;;;;8.55;67.97;98127.41;105485;1259;64219;-52
2023/03/11 10:56:29;;;;;;;23.60;19.30;;;;;;;8.60;68.06;98119.73;105535;1257;62656;-52
2023/03/11 10:58:58;;;;;;;24.00;19.40;;;;;;;8.60;68.26;98113.21;105388;1260;65495;-53
2023/03/11 11:01:27;;;;;;;24.70;19.10;;;;;;;8.59;68.48;98105.36;105459;1257;59558;-51
2023/03/11 11:03:59;;;;;;;24.90;19.40;;;;;;;8.55;68.55;98096.98;105485;1260;60095;-51
2023/03/11 11:06:31;;;;;;;26.00;20.50;;;;;;;8.53;68.74;98093.01;105483;1259;65402;-55
2023/03/11 11:09:16;;;;;;;26.60;19.50;;;;;;;8.52;68.77;98084.20;105462;1258;62629;-52
2023/03/11 11:12:02;;;;;;;26.10;19.50;;;;;;;8.56;68.76;98075.22;105424;1260;64961;-52
2023/03/11 11:14:47;;;;;;;29.30;19.70;;;;;;;8.64;68.83;98073.89;105590;1257;59839;-52
2023/03/11 11:17:32;;;;;;;27.80;20.70;;;;;;;8.70;68.97;98069.52;105407;1259;59734;-52
2023/03/11 11:20:11;;;;;;;28.50;20.80;;;;;;;8.73;69.04;98067.45;105514;1254;65512;-53
2023/03/11 11:22:47;;;;;;;29.20;22.30;;;;;;;8.73;69.06;98053.77;105491;1258;62685;-51
2023/03/11 11:25:35;;;;;;;31.00;22.40;;;;;;;8.70;69.21;98043.63;105556;1256;65130;-51
2023/03/11 11:28:17;;;;;;;31.30;22.70;;;;;;;8.68;69.25;98038.16;105568;1257;59649;-52
2023/03/11 11:30:53;;;;;;;31.70;22.00;;;;;;;8.63;69.28;98037.09;105472;1255;59707;-50
2023/03/11 11:33:38;;;;;;;29.40;22.30;;;;;;;8.65;69.23;98036.09;105480;1255;65731;-51
2023/03/11 11:36:12;;;;;;;30.30;21.00;;;;;;;8.72;69.21;98033.48;105575;1259;62465;-51